Time;durP1;ratioP1;P1;durP2;ratioP2;P2;SDS_P1;SDS_P2;PMS_P1;PMS_P2;Temp;Humidity;BMP_temperature;BMP_pressure;BME280_temperature;BME280_humidity;BME280_pressure;Samples;Min_cycle;Max_cycle;Signal;HPM_P1;HPM_P2
2023/07/03 00:07:20;;;;;;;15.13;8.90;;;;;;;19.07;51.85;98809.63;7242632;40;20366;31
2023/07/03 00:18:01;;;;;;;17.00;8.57;;;;;;;18.91;52.47;98811.91;7254480;40;20389;31
2023/07/03 00:23:36;;;;;;;14.15;8.10;;;;;;;18.91;51.85;98817.38;7262545;40;20276;31
2023/07/03 00:34:12;;;;;;;17.50;8.70;;;;;;;19.01;51.93;98813.25;7261080;40;20304;31
2023/07/03 00:39:47;;;;;;;15.33;7.67;;;;;;;19.05;52.54;98820.75;7227537;40;20261;31
2023/07/03 00:45:25;;;;;;;14.00;8.70;;;;;;;19.16;51.73;98820.00;7219688;40;20273;31
2023/07/03 00:51:05;;;;;;;15.70;8.23;;;;;;;19.20;51.70;98810.28;7219151;40;20359;31
2023/07/03 00:56:39;;;;;;;20.65;9.00;;;;;;;19.29;50.64;98811.63;7202025;40;20268;31
2023/07/03 01:02:12;;;;;;;16.07;8.30;;;;;;;19.32;51.97;98800.22;7019677;40;21273;31
2023/07/03 01:07:48;;;;;;;17.10;9.10;;;;;;;19.39;50.79;98802.84;7236962;40;20361;31
2023/07/03 01:13:23;;;;;;;15.50;8.57;;;;;;;19.41;51.87;98799.88;7205172;40;20398;31
2023/07/03 01:18:58;;;;;;;15.03;8.40;;;;;;;19.46;51.04;98797.31;7196951;40;20247;31
2023/07/03 01:24:40;;;;;;;17.87;8.30;;;;;;;19.48;51.73;98803.41;7162189;40;20258;31
2023/07/03 01:30:15;;;;;;;17.90;8.33;;;;;;;19.56;50.92;98800.31;7175562;40;20280;31
2023/07/03 01:40:55;;;;;;;14.33;8.30;;;;;;;19.56;51.66;98803.06;7218927;40;20350;31
2023/07/03 01:46:30;;;;;;;15.68;8.38;;;;;;;19.57;51.73;98797.31;7212607;40;20335;31
2023/07/03 01:52:05;;;;;;;18.27;8.97;;;;;;;19.56;52.31;98786.66;7236827;40;20358;31
2023/07/03 01:57:42;;;;;;;15.73;8.20;;;;;;;19.51;51.82;98786.50;7257413;40;20272;31
2023/07/03 02:03:17;;;;;;;16.00;8.10;;;;;;;19.49;52.27;98797.66;7179332;40;20242;31
2023/07/03 02:08:52;;;;;;;13.87;7.83;;;;;;;19.46;51.80;98783.63;7203654;40;20247;31
2023/07/03 02:14:26;;;;;;;19.50;8.15;;;;;;;19.48;52.69;98793.28;7206934;40;20285;31
2023/07/03 02:20:04;;;;;;;16.93;8.30;;;;;;;19.52;51.79;98790.91;7208279;40;20363;31
2023/07/03 02:30:41;;;;;;;16.73;8.40;;;;;;;19.57;51.94;98794.59;7244225;40;20288;31
2023/07/03 02:36:31;;;;;;;16.00;8.70;;;;;;;19.52;52.05;98799.13;7204035;40;20258;31
2023/07/03 02:47:14;;;;;;;22.05;9.40;;;;;;;19.58;52.59;98811.84;7237222;40;20261;31
2023/07/03 02:52:48;;;;;;;13.60;7.65;;;;;;;19.60;52.61;98806.97;7213173;40;21007;31
2023/07/03 02:58:09;;;;;;;15.00;8.50;;;;;;;19.57;52.68;98807.47;7245434;40;20945;31
2023/07/03 03:08:46;;;;;;;15.94;8.40;;;;;;;19.54;52.50;98805.16;7284991;39;20268;31
2023/07/03 03:14:20;;;;;;;14.70;8.27;;;;;;;19.47;53.52;98796.25;7325506;39;20236;31
2023/07/03 03:19:41;;;;;;;16.43;8.53;;;;;;;19.49;53.27;98802.31;7303777;39;20750;31
2023/07/03 03:30:25;;;;;;;17.20;8.40;;;;;;;19.64;53.85;98806.28;7258266;39;20318;31
2023/07/03 03:36:00;;;;;;;12.67;8.03;;;;;;;19.60;53.36;98805.09;7195354;40;20244;31
2023/07/03 03:41:21;;;;;;;15.60;8.50;;;;;;;19.60;53.52;98818.75;7233381;40;20246;31
2023/07/03 03:46:56;;;;;;;16.73;8.43;;;;;;;19.54;53.13;98821.56;7258130;40;20241;31
2023/07/03 03:52:17;;;;;;;15.60;8.40;;;;;;;19.57;53.24;98816.47;7240178;40;20874;31
2023/07/03 03:57:52;;;;;;;16.40;8.40;;;;;;;19.54;53.31;98825.16;7209658;40;20237;31
2023/07/03 04:03:28;;;;;;;17.07;8.93;;;;;;;19.53;53.75;98815.28;7237783;40;20696;31
2023/07/03 04:09:01;;;;;;;16.87;8.50;;;;;;;19.59;53.91;98813.50;7250690;40;20276;31
2023/07/03 04:14:22;;;;;;;19.60;8.97;;;;;;;19.62;53.44;98819.34;7226831;40;20967;31
2023/07/03 04:25:03;;;;;;;17.10;9.00;;;;;;;19.62;53.74;98823.97;7256714;40;20273;31
2023/07/03 04:30:36;;;;;;;17.02;8.32;;;;;;;19.68;53.40;98828.50;7263875;40;20332;31
2023/07/03 04:35:57;;;;;;;17.67;7.80;;;;;;;19.59;53.30;98833.50;7271717;40;20799;31
2023/07/03 04:41:33;;;;;;;19.50;7.93;;;;;;;19.59;53.78;98851.78;7274533;40;20719;31
2023/07/03 04:52:16;;;;;;;19.50;8.70;;;;;;;19.44;54.11;98860.41;7318834;39;20267;31
2023/07/03 04:57:51;;;;;;;16.20;7.55;;;;;;;19.48;53.12;98863.53;7222547;40;20241;31
2023/07/03 05:03:11;;;;;;;14.20;8.20;;;;;;;19.46;53.79;98869.22;7267339;39;20354;31
2023/07/03 05:08:46;;;;;;;14.55;8.30;;;;;;;19.54;54.15;98879.84;7221695;40;20262;31
2023/07/03 05:14:23;;;;;;;14.67;7.60;;;;;;;19.46;53.42;98882.91;7271192;39;20324;31
2023/07/03 05:19:58;;;;;;;17.60;7.90;;;;;;;19.56;53.64;98894.13;7258966;40;20753;31
2023/07/03 05:25:34;;;;;;;15.00;7.70;;;;;;;19.61;53.95;98905.19;7197804;40;20340;31
2023/07/03 05:31:11;;;;;;;15.87;7.10;;;;;;;19.55;53.94;98917.06;7192885;40;20532;31
2023/07/03 05:36:31;;;;;;;14.40;7.37;;;;;;;19.41;54.51;98915.53;7198157;40;20281;31
2023/07/03 05:42:07;;;;;;;14.60;6.93;;;;;;;19.41;53.48;98918.25;7211672;40;20245;31
2023/07/03 05:47:45;;;;;;;15.80;6.30;;;;;;;19.41;53.61;98920.97;7246887;39;20415;31
2023/07/03 05:53:21;;;;;;;17.05;6.10;;;;;;;19.38;52.92;98926.94;7248716;40;20720;31
2023/07/03 05:58:42;;;;;;;12.27;5.63;;;;;;;19.40;53.08;98929.41;7167411;40;20807;31
2023/07/03 06:04:19;;;;;;;16.85;6.70;;;;;;;19.38;53.84;98932.38;7226268;40;20252;31
2023/07/03 06:09:59;;;;;;;17.83;6.27;;;;;;;19.42;53.78;98938.22;7277630;39;20847;31
2023/07/03 06:15:35;;;;;;;15.80;5.90;;;;;;;19.39;53.08;98946.91;7274474;40;20647;31
2023/07/03 06:21:11;;;;;;;16.00;6.10;;;;;;;19.46;53.68;98947.66;7246213;40;20381;31
2023/07/03 06:26:46;;;;;;;17.25;5.75;;;;;;;19.48;52.34;98946.38;7167649;40;20847;31
2023/07/03 06:32:22;;;;;;;13.85;5.20;;;;;;;19.57;51.81;98947.72;7179624;40;20258;31
2023/07/03 06:38:10;;;;;;;;;;;;;;;;;;;;;
2023/07/03 06:54:02;;;;;;;12.55;4.80;;;;;;;19.83;51.56;98964.84;7325496;39;20261;31
2023/07/03 07:04:42;;;;;;;11.57;4.67;;;;;;;20.03;50.45;98968.12;7318938;39;20339;31
2023/07/03 07:10:30;;;;;;;10.95;3.95;;;;;;;20.09;49.40;98967.22;7259108;40;20276;31
2023/07/03 07:15:53;;;;;;;9.95;4.50;;;;;;;20.08;50.32;98965.53;7296279;39;21306;31
2023/07/03 07:21:29;;;;;;;10.97;4.20;;;;;;;20.17;49.79;98975.06;7259492;40;20244;31
2023/07/03 07:27:02;;;;;;;10.30;3.80;;;;;;;20.37;48.89;98970.16;7236618;40;20586;31
2023/07/03 07:32:19;;;;;;;10.83;4.30;;;;;;;20.59;49.12;98975.88;7216415;40;20804;31
2023/07/03 07:37:39;;;;;;;8.97;3.63;;;;;;;20.69;48.44;98968.78;7197277;40;20788;31
2023/07/03 07:43:15;;;;;;;8.50;3.43;;;;;;;20.73;48.34;98980.09;7218772;40;20676;31
2023/07/03 07:48:50;;;;;;;9.67;3.83;;;;;;;20.70;48.46;98980.56;7273942;39;20241;31
2023/07/03 07:54:23;;;;;;;10.20;3.37;;;;;;;20.58;47.60;98980.53;7071435;40;21861;31
2023/07/03 07:59:57;;;;;;;8.17;3.40;;;;;;;20.56;46.60;98982.69;7228601;40;20273;31
2023/07/03 08:10:38;;;;;;;8.63;3.65;;;;;;;20.92;46.00;98978.06;7185966;40;20266;31
2023/07/03 08:16:15;;;;;;;7.20;3.10;;;;;;;21.17;45.79;98981.41;7152989;40;20731;31
2023/07/03 08:21:34;;;;;;;11.35;3.55;;;;;;;21.14;46.50;98990.13;7237371;40;20853;31
2023/07/03 08:26:54;;;;;;;10.85;3.60;;;;;;;20.94;45.56;98993.19;7279315;40;20721;31
2023/07/03 08:32:32;;;;;;;7.87;3.10;;;;;;;21.00;46.98;98991.41;7267280;40;20263;31
2023/07/03 08:38:08;;;;;;;7.37;2.90;;;;;;;21.22;46.00;98997.97;7262115;40;21327;31
2023/07/03 08:43:45;;;;;;;6.75;3.00;;;;;;;21.26;46.24;98996.41;7274335;39;20766;31
2023/07/03 08:49:23;;;;;;;12.13;2.97;;;;;;;21.23;47.26;99002.41;7235935;40;20241;31
2023/07/03 08:54:57;;;;;;;8.53;3.43;;;;;;;21.19;46.15;98994.87;7189597;40;20337;31
2023/07/03 09:00:18;;;;;;;10.33;3.33;;;;;;;21.27;47.02;99009.06;7241365;40;20257;31
2023/07/03 09:05:55;;;;;;;11.17;3.57;;;;;;;20.97;46.50;99019.31;7256847;40;20240;31
2023/07/03 09:11:30;;;;;;;6.82;2.92;;;;;;;21.06;46.60;99012.38;7234538;40;20804;31
2023/07/03 09:22:13;;;;;;;8.30;3.10;;;;;;;21.11;48.27;99017.97;7240146;40;20257;31
2023/07/03 09:27:34;;;;;;;8.35;3.08;;;;;;;21.15;48.64;99023.84;7182723;40;20957;31
2023/07/03 09:33:09;;;;;;;9.90;2.80;;;;;;;20.97;49.71;99024.78;7264378;39;20666;31
2023/07/03 09:38:46;;;;;;;10.23;2.97;;;;;;;21.33;49.16;99019.06;7217818;40;20274;31
2023/07/03 09:44:21;;;;;;;8.05;2.60;;;;;;;21.33;49.67;99012.72;7206266;40;20758;31
2023/07/03 09:55:03;;;;;;;9.47;3.30;;;;;;;21.62;48.96;99010.91;7245922;40;20289;31
2023/07/03 10:00:38;;;;;;;8.48;3.03;;;;;;;21.24;48.82;99014.19;7286187;40;22012;31
2023/07/03 10:06:14;;;;;;;6.05;2.60;;;;;;;21.18;50.28;99028.84;7256096;40;20983;31
2023/07/03 10:11:51;;;;;;;6.82;2.50;;;;;;;21.26;49.36;99023.84;7198954;40;20641;31
2023/07/03 10:17:26;;;;;;;7.05;2.40;;;;;;;22.18;47.76;99010.13;7186898;40;20285;31
2023/07/03 10:23:02;;;;;;;6.67;2.60;;;;;;;22.59;46.97;99019.94;7159353;40;20236;31
2023/07/03 10:28:42;;;;;;;4.67;2.60;;;;;;;22.48;46.51;99011.50;7203932;40;20246;31
2023/07/03 10:34:23;;;;;;;10.23;2.87;;;;;;;22.23;46.55;99016.56;7173095;40;20406;31
2023/07/03 10:40:00;;;;;;;5.75;2.50;;;;;;;22.23;47.64;99005.56;7160267;40;20337;31
2023/07/03 10:45:36;;;;;;;5.80;2.50;;;;;;;22.51;46.94;98999.19;7159825;40;20300;31
2023/07/03 10:51:12;;;;;;;8.30;2.90;;;;;;;22.46;46.63;98994.47;7201261;40;20838;31
2023/07/03 10:56:47;;;;;;;8.45;2.87;;;;;;;22.35;46.45;99000.00;7157272;40;20429;31
2023/07/03 11:07:30;;;;;;;8.05;2.90;;;;;;;22.17;47.54;98976.34;7241676;40;20276;31
2023/07/03 11:13:21;;;;;;;7.03;2.67;;;;;;;22.18;47.56;98978.00;7232539;40;20760;31
2023/07/03 11:24:03;;;;;;;4.83;2.57;;;;;;;22.55;46.39;98992.12;7193177;40;20258;31
2023/07/03 11:29:53;;;;;;;4.03;2.17;;;;;;;22.45;46.45;98995.53;7158231;40;21440;31
2023/07/03 11:40:55;;;;;;;5.10;2.25;;;;;;;23.27;44.78;98971.00;7137809;40;20346;31
2023/07/03 11:51:44;;;;;;;7.05;2.70;;;;;;;22.80;46.05;98989.00;7248598;40;20293;31
2023/07/03 11:57:23;;;;;;;4.75;2.22;;;;;;;23.18;46.41;98986.28;7262028;40;20972;31
2023/07/03 12:03:09;;;;;;;5.60;2.28;;;;;;;23.25;44.84;98991.59;7254853;40;20932;31
2023/07/03 12:08:56;;;;;;;4.55;2.20;;;;;;;23.35;44.94;98991.72;7200239;40;20747;31
2023/07/03 12:15:05;;;;;;;4.45;2.30;;;;;;;23.22;45.11;98995.69;7226046;40;20690;31
2023/07/03 12:20:37;;;;;;;3.07;2.10;;;;;;;23.00;45.94;99003.06;7146256;40;20240;31
2023/07/03 12:26:15;;;;;;;3.70;2.07;;;;;;;23.00;46.43;99018.72;7132274;40;20255;31
2023/07/03 12:31:52;;;;;;;3.38;2.10;;;;;;;23.04;47.25;99030.88;7150603;40;20803;31
2023/07/03 12:37:28;;;;;;;3.70;2.00;;;;;;;23.12;47.48;99014.81;7166656;40;20875;31
2023/07/03 12:43:03;;;;;;;5.20;2.20;;;;;;;23.34;46.90;98996.41;7168864;40;22091;31
2023/07/03 12:48:39;;;;;;;3.23;2.10;;;;;;;23.69;47.15;98995.25;7179874;40;20866;31
2023/07/03 12:54:15;;;;;;;4.32;2.15;;;;;;;23.98;46.13;98991.19;7177690;40;20814;31
2023/07/03 12:59:51;;;;;;;3.30;2.00;;;;;;;24.04;45.88;98994.84;7176786;40;20740;31
2023/07/03 13:10:30;;;;;;;3.90;2.00;;;;;;;24.54;44.34;98986.25;7152540;40;20263;31
2023/07/03 13:15:50;;;;;;;5.40;2.23;;;;;;;24.53;44.98;98984.59;7230788;40;20747;31
2023/07/03 13:21:26;;;;;;;3.27;1.90;;;;;;;24.50;45.25;99009.94;7294053;39;20355;31
2023/07/03 13:27:05;;;;;;;3.33;2.00;;;;;;;24.89;44.74;98989.34;7238384;40;20238;31
2023/07/03 13:32:26;;;;;;;3.87;2.05;;;;;;;25.24;43.81;98963.06;7187004;40;20263;31
2023/07/03 13:37:47;;;;;;;6.90;2.30;;;;;;;24.69;44.39;98984.47;7156885;40;20325;31
2023/07/03 13:43:27;;;;;;;3.87;2.08;;;;;;;24.69;45.05;98969.84;7177019;40;20254;31
2023/07/03 13:48:47;;;;;;;5.90;2.50;;;;;;;24.93;44.48;98968.41;7230905;40;21299;31
2023/07/03 13:54:24;;;;;;;5.55;2.10;;;;;;;24.91;44.37;98965.09;7271777;40;20279;31
2023/07/03 14:00:01;;;;;;;6.05;1.83;;;;;;;24.41;45.19;98954.47;7278714;40;20273;31
2023/07/03 14:05:36;;;;;;;4.60;1.80;;;;;;;24.11;45.65;98938.44;7215083;40;20254;31
2023/07/03 14:16:11;;;;;;;3.85;1.80;;;;;;;24.42;47.39;98924.97;7213562;40;20284;31
2023/07/03 14:21:34;;;;;;;5.32;2.00;;;;;;;24.50;45.86;98936.34;7225152;40;20961;31
2023/07/03 14:26:55;;;;;;;4.00;2.00;;;;;;;24.57;46.78;98922.34;7250352;40;20323;31
2023/07/03 14:32:31;;;;;;;4.93;2.07;;;;;;;24.67;45.77;98925.16;7220065;40;20862;31
2023/07/03 14:38:03;;;;;;;3.77;2.00;;;;;;;24.53;45.79;98915.69;7230026;40;20816;31
2023/07/03 14:49:13;;;;;;;3.85;2.10;;;;;;;24.12;47.83;98909.00;7237319;40;20272;31
2023/07/03 14:54:33;;;;;;;3.50;2.05;;;;;;;24.13;47.40;98924.44;7223470;40;20366;31
2023/07/03 15:05:10;;;;;;;4.10;2.10;;;;;;;24.37;46.85;98897.38;7090655;40;20357;31
2023/07/03 15:15:48;;;;;;;3.35;1.90;;;;;;;24.38;46.89;98899.03;7349167;39;20359;31
2023/07/03 15:21:23;;;;;;;3.50;1.90;;;;;;;24.22;46.01;98887.87;7298535;40;20375;31
2023/07/03 15:26:59;;;;;;;3.65;2.00;;;;;;;24.17;46.57;98882.34;7218032;40;20242;31
2023/07/03 15:32:21;;;;;;;4.60;1.80;;;;;;;24.11;47.73;98894.38;7217076;40;20423;31
2023/07/03 15:37:59;;;;;;;4.05;2.00;;;;;;;23.95;50.04;98924.78;7266521;40;20244;31
2023/07/03 15:43:16;;;;;;;8.32;2.50;;;;;;;23.55;55.02;98922.41;7247676;40;20334;31
2023/07/03 15:48:52;;;;;;;4.75;2.30;;;;;;;23.21;56.39;98930.75;7262799;40;20245;31
2023/07/03 15:54:28;;;;;;;3.50;1.90;;;;;;;23.01;56.41;98904.91;7198570;40;21485;31
2023/07/03 15:59:50;;;;;;;3.70;2.00;;;;;;;23.10;55.75;98908.88;7236231;40;21380;31
2023/07/03 16:05:25;;;;;;;3.60;1.98;;;;;;;23.16;56.32;98886.72;7259174;40;20245;31
2023/07/03 16:11:02;;;;;;;3.25;1.98;;;;;;;23.24;55.72;98888.16;7259894;40;20257;31
2023/07/03 16:16:38;;;;;;;2.85;1.90;;;;;;;23.41;53.81;98882.59;7169301;40;20257;31
2023/07/03 16:21:59;;;;;;;4.93;2.15;;;;;;;23.73;53.06;98881.63;7208685;40;20372;31
2023/07/03 16:27:32;;;;;;;3.25;2.15;;;;;;;23.64;53.11;98876.84;7212633;40;20335;31
2023/07/03 16:33:09;;;;;;;3.78;2.12;;;;;;;23.61;52.71;98869.91;7243285;40;20376;31
2023/07/03 16:38:41;;;;;;;6.90;2.57;;;;;;;23.58;51.88;98875.13;7266475;40;20241;31
2023/07/03 16:44:17;;;;;;;6.42;3.06;;;;;;;23.44;53.13;98874.69;7278879;40;20357;31
2023/07/03 16:49:38;;;;;;;9.10;6.60;;;;;;;23.42;53.34;98878.75;7243223;40;20242;31
2023/07/03 16:54:59;;;;;;;5.62;3.22;;;;;;;23.36;52.56;98886.94;7264057;40;20316;31
2023/07/03 17:00:43;;;;;;;;;;;;;;;;;;;;;
2023/07/03 17:05:55;;;;;;;5.25;2.25;;;;;;;23.36;53.50;98897.94;7205555;40;20254;31
2023/07/03 17:11:30;;;;;;;5.55;2.55;;;;;;;23.09;57.09;98909.97;7253652;40;20408;31
2023/07/03 17:17:08;;;;;;;5.95;2.25;;;;;;;22.61;60.45;98927.09;7278807;40;20256;31
2023/07/03 17:22:44;;;;;;;4.60;2.70;;;;;;;22.08;63.06;98931.16;7247629;40;20336;31
2023/07/03 17:28:19;;;;;;;5.07;2.28;;;;;;;22.03;63.31;98925.56;7196824;40;20242;31
2023/07/03 17:33:54;;;;;;;4.05;2.40;;;;;;;21.93;64.56;98936.38;7230937;40;20393;31
2023/07/03 17:44:20;;;;;;;2.53;1.90;;;;;;;21.62;65.98;98902.00;7259424;40;20266;31
2023/07/03 17:49:52;;;;;;;3.80;2.08;;;;;;;21.80;65.47;98892.75;7285220;40;21425;31
2023/07/03 18:00:17;;;;;;;3.05;2.15;;;;;;;21.86;65.60;98886.25;7258489;40;20284;31
2023/07/03 18:05:57;;;;;;;4.40;2.30;;;;;;;21.81;66.91;98888.91;7236090;40;20363;31
2023/07/03 18:16:37;;;;;;;5.35;2.50;;;;;;;21.58;66.17;98874.25;7282364;39;20265;31
2023/07/03 18:22:13;;;;;;;3.62;2.40;;;;;;;21.39;66.46;98860.97;7293226;39;20279;31
2023/07/03 18:27:48;;;;;;;3.30;2.47;;;;;;;21.20;66.32;98851.25;7266459;40;20256;31
2023/07/03 18:33:23;;;;;;;3.87;2.35;;;;;;;21.08;66.66;98849.34;7238185;40;20284;31
2023/07/03 18:38:53;;;;;;;3.60;2.35;;;;;;;20.88;67.42;98857.16;7259886;40;20260;31
2023/07/03 18:44:16;;;;;;;3.37;2.50;;;;;;;20.78;69.59;98858.81;7218648;40;20367;31
2023/07/03 18:49:37;;;;;;;4.30;2.55;;;;;;;20.76;67.98;98861.78;7232074;40;20287;31
2023/07/03 18:55:15;;;;;;;4.75;2.85;;;;;;;20.79;70.04;98857.75;7252609;40;20237;31
2023/07/03 19:00:50;;;;;;;5.93;2.90;;;;;;;20.74;69.52;98860.38;7266399;39;20272;31
2023/07/03 19:06:24;;;;;;;3.92;2.60;;;;;;;20.67;69.05;98850.37;7255453;40;20253;31
2023/07/03 19:12:01;;;;;;;3.10;2.55;;;;;;;20.61;70.51;98851.34;7220271;40;20258;31
2023/07/03 19:17:20;;;;;;;5.10;2.50;;;;;;;20.63;70.23;98849.19;7232883;40;20424;31
2023/07/03 19:22:41;;;;;;;6.15;2.80;;;;;;;20.62;69.76;98855.72;7251502;40;20245;31
2023/07/03 19:28:18;;;;;;;3.60;2.55;;;;;;;20.58;70.29;98850.97;7274700;40;20271;31
2023/07/03 19:33:38;;;;;;;4.40;2.47;;;;;;;20.57;69.37;98863.03;7235179;40;20253;31
2023/07/03 19:38:56;;;;;;;2.80;2.33;;;;;;;20.52;70.51;98858.25;7251595;40;20357;31
2023/07/03 19:44:32;;;;;;;3.80;2.55;;;;;;;20.46;70.59;98856.47;7235443;40;20279;31
2023/07/03 19:50:10;;;;;;;4.77;2.60;;;;;;;20.38;71.21;98865.03;7215062;40;20258;31
2023/07/03 19:55:44;;;;;;;4.07;2.70;;;;;;;20.35;69.81;98875.66;7234753;40;20464;31
2023/07/03 20:01:20;;;;;;;4.60;2.85;;;;;;;20.36;69.75;98885.53;7216690;40;20344;31
2023/07/03 20:06:56;;;;;;;4.87;2.80;;;;;;;20.36;69.59;98883.59;7196835;40;20314;31
2023/07/03 20:12:31;;;;;;;2.60;2.30;;;;;;;20.49;69.00;98891.56;7186674;40;20274;31
2023/07/03 20:18:05;;;;;;;4.03;2.50;;;;;;;20.53;70.32;98891.97;7209402;40;20260;31
2023/07/03 20:23:41;;;;;;;4.37;2.67;;;;;;;20.36;69.32;98905.50;7198766;40;20266;31
2023/07/03 20:29:18;;;;;;;4.30;2.70;;;;;;;20.30;69.91;98913.84;7240077;40;20256;31
2023/07/03 20:34:54;;;;;;;4.50;2.53;;;;;;;20.19;71.05;98902.59;7216191;40;20265;31
2023/07/03 20:40:29;;;;;;;4.12;2.35;;;;;;;20.36;69.28;98907.44;7186234;40;20286;31
2023/07/03 20:51:12;;;;;;;3.48;2.50;;;;;;;20.31;69.08;98905.41;7215000;40;20257;31
2023/07/03 20:56:47;;;;;;;4.00;2.70;;;;;;;20.22;70.02;98909.53;7198433;40;20272;31
2023/07/03 21:07:28;;;;;;;4.90;2.70;;;;;;;20.15;70.89;98917.00;7206696;40;20312;31
2023/07/03 21:12:51;;;;;;;3.52;2.60;;;;;;;20.13;70.15;98919.97;7212553;40;20861;31
2023/07/03 21:18:26;;;;;;;5.47;2.80;;;;;;;20.07;71.20;98922.81;7225513;40;20736;31
2023/07/03 21:24:03;;;;;;;4.10;2.87;;;;;;;19.98;71.25;98921.47;7258332;40;20706;31
2023/07/03 21:29:38;;;;;;;3.83;2.70;;;;;;;19.89;71.01;98920.97;7228116;40;20257;31
2023/07/03 21:34:59;;;;;;;4.00;2.80;;;;;;;19.82;72.26;98913.94;7200730;40;20805;31
2023/07/03 21:40:32;;;;;;;6.13;2.80;;;;;;;19.82;71.93;98917.50;6940567;40;21153;31
2023/07/03 21:46:14;;;;;;;3.20;2.60;;;;;;;19.75;73.29;98911.28;7104512;40;20894;31
2023/07/03 21:51:54;;;;;;;3.43;2.60;;;;;;;19.74;73.08;98923.31;7135972;40;20897;31
2023/07/03 21:57:31;;;;;;;4.20;2.50;;;;;;;19.72;74.08;98914.50;7184416;40;20766;31
2023/07/03 22:02:53;;;;;;;4.30;2.37;;;;;;;19.78;72.98;98916.31;7213915;40;20261;31
2023/07/03 22:08:12;;;;;;;4.17;2.70;;;;;;;19.80;72.31;98905.97;7314622;39;20267;31
2023/07/03 22:13:47;;;;;;;4.03;2.40;;;;;;;19.78;73.57;98925.34;7315702;39;21044;31
2023/07/03 22:19:08;;;;;;;3.50;2.50;;;;;;;19.75;73.36;98916.75;7240252;40;20831;31
2023/07/03 22:24:46;;;;;;;2.97;2.50;;;;;;;19.71;72.84;98913.66;7197595;40;20246;31
2023/07/03 22:30:24;;;;;;;3.13;2.40;;;;;;;19.70;72.79;98914.72;7186314;40;20266;31
2023/07/03 22:35:59;;;;;;;4.17;2.57;;;;;;;19.80;71.61;98911.44;7175701;40;20274;31
2023/07/03 22:41:22;;;;;;;3.03;2.30;;;;;;;19.79;71.21;98907.00;7171574;40;20250;31
2023/07/03 22:52:12;;;;;;;4.07;2.30;;;;;;;19.68;71.53;98918.75;7167412;40;20325;31
2023/07/03 22:57:47;;;;;;;3.57;2.43;;;;;;;19.67;71.81;98915.19;7183544;40;21375;31
2023/07/03 23:03:23;;;;;;;2.90;2.43;;;;;;;19.70;72.40;98916.66;7238779;40;21188;31
2023/07/03 23:08:45;;;;;;;4.50;2.60;;;;;;;19.68;71.51;98919.59;7274872;40;20241;31
2023/07/03 23:14:19;;;;;;;3.20;2.70;;;;;;;19.54;71.18;98920.84;7266277;40;20764;31
2023/07/03 23:19:56;;;;;;;3.50;2.47;;;;;;;19.47;72.08;98922.84;7269817;40;20261;31
2023/07/03 23:25:17;;;;;;;3.70;2.60;;;;;;;19.41;71.42;98929.19;7218377;40;20799;31
2023/07/03 23:30:52;;;;;;;2.60;2.20;;;;;;;19.41;72.39;98911.94;7274842;40;20323;31
2023/07/03 23:36:30;;;;;;;4.20;2.40;;;;;;;19.54;72.31;98925.47;7236294;40;20247;31
2023/07/03 23:42:07;;;;;;;2.20;1.90;;;;;;;19.46;71.75;98923.06;7231209;39;21455;31
2023/07/03 23:47:39;;;;;;;3.03;2.40;;;;;;;19.44;72.18;98926.00;7135822;40;20717;31
2023/07/03 23:53:12;;;;;;;2.60;2.30;;;;;;;19.31;73.18;98934.34;7237689;40;20254;31
2023/07/03 23:58:47;;;;;;;3.35;2.40;;;;;;;19.36;72.29;98926.31;7241451;40;20880;31
